KBNO/BNO METAR and TAF weather

Enter ICAO airport designator
Station Type Date Time Source
KBNO METAR 2024/06/14 02:53 UTC NOAA

KBNO 140253Z AUTO 25009G16KT 10SM CLR 27/08 A2989 RMK AO2 SLP078 T02720078 55004


Station Type Date Time Source
KBNO Decoded METAR 2024/06/14 02:53 UTC NOAA

BURNS MUNICIPAL AIRPORT, OR, United States (KBNO) 43-36N 118-57W 1264M
Jun 13, 2024 - 10:53 PM EDT / 2024.06.14 0253 UTC
Wind: from the WSW (250 degrees) at 10 MPH (9 KT) gusting to 18 MPH (16 KT):0
Visibility: 10 mile(s):0
Sky conditions: clear
Temperature: 81.0 F (27.2 C)
Dew Point: 46.0 F (7.8 C)
Relative Humidity: 29%
Pressure (altimeter): 29.89 in. Hg (1012 hPa)
Pressure tendency: 0.01 inches (0.4 hPa) lower than three hours ago
ob: KBNO 140253Z AUTO 25009G16KT 10SM CLR 27/08 A2989 RMK AO2 SLP078 T02720078 55004
cycle: 3

Station Type Date Time Source
KBNO TAF 2024/06/14 02:03 UTC NOAA